createdAt,value
2018-02-24T00:00:01.589Z,928.91
2018-02-24T00:00:14.610Z,928.9
2018-02-24T00:00:27.642Z,928.92
2018-02-24T00:00:40.177Z,928.93
2018-02-24T00:00:53.177Z,928.9
2018-02-24T00:01:06.211Z,928.92
2018-02-24T00:01:19.247Z,928.9
2018-02-24T00:01:32.293Z,928.89
2018-02-24T00:01:44.332Z,928.87
2018-02-24T00:01:57.336Z,928.92
2018-02-24T00:02:09.334Z,928.95
2018-02-24T00:02:22.373Z,928.89
2018-02-24T00:02:35.410Z,928.9
2018-02-24T00:02:47.466Z,928.91
2018-02-24T00:02:59.980Z,928.92
2018-02-24T00:03:13.010Z,928.9
2018-02-24T00:03:25.564Z,928.89
2018-02-24T00:03:38.137Z,928.9
2018-02-24T00:03:50.705Z,928.96
2018-02-24T00:04:03.234Z,928.95
2018-02-24T00:04:16.268Z,928.93
2018-02-24T00:04:28.826Z,928.96
2018-02-24T00:04:41.895Z,928.99
2018-02-24T00:04:54.918Z,928.95
2018-02-24T00:05:07.480Z,928.95
2018-02-24T00:05:20.647Z,928.97
2018-02-24T00:05:33.159Z,928.93
2018-02-24T00:05:46.110Z,928.93
2018-02-24T00:05:59.114Z,928.92
2018-02-24T00:06:12.143Z,928.96
2018-02-24T00:06:24.677Z,929.03
2018-02-24T00:06:37.699Z,929
2018-02-24T00:06:50.684Z,928.94
2018-02-24T00:07:03.201Z,928.96
2018-02-24T00:07:15.324Z,928.98
2018-02-24T00:07:28.361Z,928.94
2018-02-24T00:07:41.398Z,928.98
2018-02-24T00:07:54.461Z,928.99
2018-02-24T00:08:06.966Z,928.97
2018-02-24T00:08:19.984Z,929
2018-02-24T00:08:32.978Z,929.02
2018-02-24T00:08:45.020Z,929.04
2018-02-24T00:08:58.043Z,928.97
2018-02-24T00:09:10.573Z,928.95
2018-02-24T00:09:23.571Z,929.01
2018-02-24T00:09:35.660Z,929.09
2018-02-24T00:09:48.184Z,928.99
2018-02-24T00:10:01.221Z,928.98
2018-02-24T00:10:13.721Z,929.03
2018-02-24T00:10:26.720Z,929.03
2018-02-24T00:10:39.795Z,929.06
2018-02-24T00:10:52.826Z,929.07
2018-02-24T00:11:05.350Z,929.01
2018-02-24T00:11:18.351Z,929.12
2018-02-24T00:11:30.419Z,929.06
2018-02-24T00:11:43.414Z,929.09
2018-02-24T00:11:56.410Z,929.1
2018-02-24T00:12:08.560Z,929.07
2018-02-24T00:12:21.641Z,929.05
2018-02-24T00:12:34.139Z,929.09
2018-02-24T00:12:47.160Z,929.02
2018-02-24T00:13:00.180Z,929.05
2018-02-24T00:13:13.224Z,929.09
2018-02-24T00:13:26.260Z,929.1
2018-02-24T00:13:38.794Z,929.08
2018-02-24T00:13:51.331Z,929.17
2018-02-24T00:14:04.345Z,929.06
2018-02-24T00:14:16.825Z,929.03
2018-02-24T00:14:29.466Z,929.08
2018-02-24T00:14:42.295Z,929.05
2018-02-24T00:14:54.886Z,929.01
2018-02-24T00:15:07.427Z,929.07
2018-02-24T00:15:20.009Z,929.01
2018-02-24T00:15:33.017Z,929.06
2018-02-24T00:15:46.038Z,929.08
2018-02-24T00:15:58.603Z,928.98
2018-02-24T00:16:11.606Z,929.01
2018-02-24T00:16:24.600Z,929.07
2018-02-24T00:16:36.669Z,929.05
2018-02-24T00:16:49.234Z,928.97
2018-02-24T00:17:01.780Z,929.12
2018-02-24T00:17:15.284Z,929.02
2018-02-24T00:17:28.315Z,929
2018-02-24T00:17:41.340Z,928.98
2018-02-24T00:17:54.343Z,928.99
2018-02-24T00:18:06.875Z,929.09
2018-02-24T00:18:19.843Z,929.04
2018-02-24T00:18:32.879Z,929.01
2018-02-24T00:18:44.484Z,928.99
2018-02-24T00:18:57.036Z,929.03
2018-02-24T00:19:10.046Z,929.06
2018-02-24T00:19:23.094Z,929.04
2018-02-24T00:19:36.105Z,929.01
2018-02-24T00:19:49.177Z,929.05
2018-02-24T00:20:02.187Z,929.01
2018-02-24T00:20:15.176Z,929.04
2018-02-24T00:20:27.739Z,929.04
2018-02-24T00:20:40.802Z,929.04
2018-02-24T00:20:53.428Z,929.11
2018-02-24T00:21:05.946Z,929.04
2018-02-24T00:21:18.942Z,929.08
2018-02-24T00:21:31.923Z,929.1
2018-02-24T00:21:44.962Z,929.08
2018-02-24T00:21:58.007Z,929.09
2018-02-24T00:22:11.026Z,929.03
2018-02-24T00:22:24.123Z,929.01
2018-02-24T00:22:36.660Z,929.11
2018-02-24T00:22:49.216Z,929.06
2018-02-24T00:23:01.748Z,929.05
2018-02-24T00:23:14.807Z,929.01
2018-02-24T00:23:27.780Z,929.04
2018-02-24T00:23:40.742Z,929.03
2018-02-24T00:23:53.240Z,929.08
2018-02-24T00:24:05.810Z,929.04
2018-02-24T00:24:18.339Z,929.19
2018-02-24T00:24:30.875Z,929.04
2018-02-24T00:24:43.404Z,929.01
2018-02-24T00:24:56.426Z,929.03
2018-02-24T00:25:08.960Z,929.03
2018-02-24T00:25:22.020Z,929.03
2018-02-24T00:25:34.622Z,929.04
2018-02-24T00:25:47.616Z,929.07
2018-02-24T00:26:00.596Z,929.1
2018-02-24T00:26:13.637Z,929.04
2018-02-24T00:26:26.619Z,929.06
2018-02-24T00:26:39.143Z,929.08
2018-02-24T00:26:52.138Z,929.08
2018-02-24T00:27:04.209Z,929.1
2018-02-24T00:27:17.214Z,929.11
2018-02-24T00:27:29.373Z,929.11
2018-02-24T00:27:41.947Z,929.01
2018-02-24T00:27:54.994Z,929.05
2018-02-24T00:28:08.005Z,929.05
2018-02-24T00:28:21.067Z,929.06
2018-02-24T00:28:34.088Z,929.12
2018-02-24T00:28:47.066Z,929.08
2018-02-24T00:29:00.033Z,929.06
2018-02-24T00:29:13.085Z,929.1
2018-02-24T00:29:25.131Z,929.05
2018-02-24T00:29:38.103Z,929.02
2018-02-24T00:29:50.626Z,929.13
2018-02-24T00:30:03.636Z,929.03
2018-02-24T00:30:16.677Z,929.03
2018-02-24T00:30:28.776Z,929.11
2018-02-24T00:30:41.305Z,929.07
2018-02-24T00:30:54.332Z,929.03
2018-02-24T00:31:06.869Z,929.02
2018-02-24T00:31:18.961Z,929.03
2018-02-24T00:31:31.990Z,929.03
2018-02-24T00:31:45.004Z,929.05
2018-02-24T00:31:58.036Z,929.16
2018-02-24T00:32:10.606Z,929.13
2018-02-24T00:32:23.822Z,929.11
2018-02-24T00:32:36.391Z,929.08
2018-02-24T00:32:49.380Z,929.1
2018-02-24T00:33:02.378Z,929.15
2018-02-24T00:33:15.370Z,929.17
2018-02-24T00:33:28.431Z,929.12
2018-02-24T00:33:41.450Z,929.06
2018-02-24T00:33:54.472Z,929.05
2018-02-24T00:34:07.462Z,929.06
2018-02-24T00:34:20.446Z,929.1
2018-02-24T00:34:33.580Z,929.09
2018-02-24T00:34:46.111Z,929.06
2018-02-24T00:34:58.649Z,929.21
2018-02-24T00:35:11.708Z,929.12
2018-02-24T00:35:24.668Z,929.07
2018-02-24T00:35:37.279Z,929.12
2018-02-24T00:35:49.798Z,929.05
2018-02-24T00:36:02.832Z,929.08
2018-02-24T00:36:15.831Z,929.06
2018-02-24T00:36:28.391Z,929.06
2018-02-24T00:36:41.416Z,929.15
2018-02-24T00:36:54.416Z,929.04
2018-02-24T00:37:07.426Z,929.02
2018-02-24T00:37:19.502Z,929.13
2018-02-24T00:37:30.672Z,929.09
2018-02-24T00:37:43.198Z,929.09
2018-02-24T00:37:56.193Z,929.08
2018-02-24T00:38:08.696Z,929.05
2018-02-24T00:38:21.675Z,929.11
2018-02-24T00:38:34.714Z,929.05
2018-02-24T00:38:47.716Z,929.13
2018-02-24T00:39:00.271Z,929.16
2018-02-24T00:39:12.762Z,929.05
2018-02-24T00:39:25.355Z,929.06
2018-02-24T00:39:38.402Z,929.12
2018-02-24T00:39:51.411Z,929.1
2018-02-24T00:40:04.394Z,929.04
2018-02-24T00:40:17.354Z,929.12
2018-02-24T00:40:29.935Z,929.13
2018-02-24T00:40:42.966Z,929.16
2018-02-24T00:40:55.955Z,929.01
2018-02-24T00:41:09.012Z,929.17
2018-02-24T00:41:22.044Z,929.03
2018-02-24T00:41:34.557Z,929.14
2018-02-24T00:41:47.561Z,929.09
2018-02-24T00:42:00.071Z,929.08
2018-02-24T00:42:12.194Z,929.07
2018-02-24T00:42:25.331Z,929.06
2018-02-24T00:42:37.852Z,929.07
2018-02-24T00:42:50.847Z,929.06
2018-02-24T00:43:03.891Z,929.1
2018-02-24T00:43:16.938Z,929.01
2018-02-24T00:43:30.005Z,929.03
2018-02-24T00:43:43.053Z,929.09
2018-02-24T00:43:55.150Z,929.07
2018-02-24T00:44:08.155Z,929.09
2018-02-24T00:44:20.685Z,929.06
2018-02-24T00:44:32.702Z,929.08
2018-02-24T00:44:45.241Z,929.05
2018-02-24T00:44:58.223Z,929.04
2018-02-24T00:45:11.223Z,929
2018-02-24T00:45:24.269Z,929.05
2018-02-24T00:45:37.337Z,929.07
2018-02-24T00:45:50.352Z,929.1
2018-02-24T00:46:02.876Z,929.04
2018-02-24T00:46:14.976Z,929.03
2018-02-24T00:46:28.044Z,929.16
2018-02-24T00:46:40.627Z,929.07
2018-02-24T00:46:53.637Z,929.02
2018-02-24T00:47:06.660Z,929.02
2018-02-24T00:47:20.195Z,929.03
2018-02-24T00:47:32.709Z,929.03
2018-02-24T00:47:45.259Z,929.03
2018-02-24T00:47:58.201Z,929
2018-02-24T00:48:10.761Z,929.04
2018-02-24T00:48:23.754Z,929.08
2018-02-24T00:48:36.779Z,929
2018-02-24T00:48:48.879Z,928.99
2018-02-24T00:49:01.877Z,928.97
2018-02-24T00:49:14.399Z,929.02
2018-02-24T00:49:27.418Z,929.12
2018-02-24T00:49:39.517Z,929.23
2018-02-24T00:49:52.574Z,929.06
2018-02-24T00:50:05.593Z,929.09
2018-02-24T00:50:18.566Z,928.97
2018-02-24T00:50:31.572Z,929.08
2018-02-24T00:50:44.616Z,929
2018-02-24T00:50:57.653Z,929.05
2018-02-24T00:51:10.189Z,929.14
2018-02-24T00:51:23.198Z,929.06
2018-02-24T00:51:35.758Z,928.98
2018-02-24T00:51:48.762Z,929.01
2018-02-24T00:52:01.724Z,928.95
2018-02-24T00:52:13.810Z,928.95
2018-02-24T00:52:26.854Z,928.97
2018-02-24T00:52:39.376Z,929.02
2018-02-24T00:52:51.989Z,928.98
2018-02-24T00:53:05.030Z,928.95
2018-02-24T00:53:18.021Z,929.01
2018-02-24T00:53:30.538Z,929.06
2018-02-24T00:53:43.598Z,929.06
2018-02-24T00:53:56.601Z,929.01
2018-02-24T00:54:09.696Z,928.99
2018-02-24T00:54:22.706Z,928.98
2018-02-24T00:54:35.697Z,928.99
2018-02-24T00:54:48.217Z,928.99
2018-02-24T00:55:01.193Z,928.96
2018-02-24T00:55:13.292Z,928.96
2018-02-24T00:55:26.331Z,928.98
2018-02-24T00:55:38.865Z,928.99
2018-02-24T00:55:51.854Z,929.04
2018-02-24T00:56:04.369Z,928.99
2018-02-24T00:56:17.368Z,928.98
2018-02-24T00:56:30.428Z,928.96
2018-02-24T00:56:42.502Z,928.96
2018-02-24T00:56:55.499Z,928.97
2018-02-24T00:57:08.075Z,928.96
2018-02-24T00:57:21.093Z,928.95
2018-02-24T00:57:34.102Z,928.91
2018-02-24T00:57:47.104Z,929.06
2018-02-24T00:58:00.118Z,929
2018-02-24T00:58:13.135Z,928.96
2018-02-24T00:58:25.243Z,928.98
2018-02-24T00:58:38.236Z,928.97
2018-02-24T00:58:51.228Z,928.89
2018-02-24T00:59:04.206Z,929.01
2018-02-24T00:59:17.186Z,928.97
2018-02-24T00:59:30.200Z,928.9
2018-02-24T00:59:43.199Z,928.97
2018-02-24T00:59:56.385Z,928.9
2018-02-24T01:00:09.374Z,928.91
2018-02-24T01:00:22.355Z,928.9
2018-02-24T01:00:35.379Z,928.9
2018-02-24T01:00:47.465Z,928.88
2018-02-24T01:01:00.549Z,928.93
2018-02-24T01:01:13.580Z,928.94
2018-02-24T01:01:26.581Z,928.94
2018-02-24T01:01:39.134Z,928.92
2018-02-24T01:01:52.151Z,928.95
2018-02-24T01:02:04.709Z,928.93
2018-02-24T01:02:17.672Z,928.93
2018-02-24T01:02:31.048Z,928.94
2018-02-24T01:02:43.586Z,929.02
2018-02-24T01:02:56.634Z,929.02
2018-02-24T01:03:09.664Z,928.93
2018-02-24T01:03:22.232Z,928.99
2018-02-24T01:03:35.228Z,928.94
2018-02-24T01:03:48.288Z,928.9
2018-02-24T01:04:01.331Z,928.91
2018-02-24T01:04:13.887Z,928.94
2018-02-24T01:04:26.498Z,928.9
2018-02-24T01:04:39.053Z,928.9
2018-02-24T01:04:51.561Z,928.91
2018-02-24T01:05:04.624Z,928.91
2018-02-24T01:05:16.720Z,928.91
2018-02-24T01:05:29.788Z,928.9
2018-02-24T01:05:42.429Z,928.93
2018-02-24T01:05:54.993Z,928.93
2018-02-24T01:06:08.019Z,928.9
2018-02-24T01:06:20.576Z,928.87
2018-02-24T01:06:33.615Z,928.93
2018-02-24T01:06:46.596Z,928.92
2018-02-24T01:06:59.589Z,928.9
2018-02-24T01:07:12.603Z,928.88
2018-02-24T01:07:25.243Z,928.87
2018-02-24T01:07:38.292Z,928.9
2018-02-24T01:07:51.284Z,928.89
2018-02-24T01:08:04.342Z,928.93
2018-02-24T01:08:16.922Z,928.9
2018-02-24T01:08:29.929Z,928.91
2018-02-24T01:08:42.077Z,928.97
2018-02-24T01:08:55.111Z,928.91
2018-02-24T01:09:08.120Z,928.93
2018-02-24T01:09:21.161Z,928.95
2018-02-24T01:09:33.686Z,928.93
2018-02-24T01:09:46.276Z,928.97
2018-02-24T01:09:58.797Z,928.97
2018-02-24T01:10:11.779Z,928.92
2018-02-24T01:10:24.769Z,928.93
2018-02-24T01:10:37.297Z,928.93
2018-02-24T01:10:50.315Z,928.92
2018-02-24T01:11:02.887Z,928.97
2018-02-24T01:11:15.901Z,928.96
2018-02-24T01:11:28.487Z,928.96
2018-02-24T01:11:41.050Z,928.98
2018-02-24T01:11:54.104Z,928.96
2018-02-24T01:12:06.193Z,928.95
2018-02-24T01:12:18.714Z,928.97
2018-02-24T01:12:31.206Z,928.97
2018-02-24T01:12:44.205Z,928.95
2018-02-24T01:12:57.229Z,928.98
2018-02-24T01:13:10.230Z,928.99
2018-02-24T01:13:23.319Z,929.04
2018-02-24T01:13:36.371Z,929.01
2018-02-24T01:13:49.362Z,929.01
2018-02-24T01:14:02.440Z,929.01
2018-02-24T01:14:15.449Z,929
2018-02-24T01:14:28.490Z,929
2018-02-24T01:14:41.526Z,928.99
2018-02-24T01:14:54.539Z,929
2018-02-24T01:15:06.620Z,929
2018-02-24T01:15:19.193Z,929.03
2018-02-24T01:15:32.209Z,929.05
2018-02-24T01:15:44.798Z,929.04
2018-02-24T01:15:57.331Z,929.07
2018-02-24T01:16:10.316Z,929.03
2018-02-24T01:16:22.853Z,929.02
2018-02-24T01:16:35.479Z,929.04
2018-02-24T01:16:48.026Z,929.06
2018-02-24T01:17:01.067Z,929.06
2018-02-24T01:17:13.127Z,929.08
2018-02-24T01:17:26.153Z,929.04
2018-02-24T01:17:39.936Z,929.06
2018-02-24T01:17:52.947Z,929.06
2018-02-24T01:18:05.487Z,929.06
2018-02-24T01:18:18.478Z,929.04
2018-02-24T01:18:31.542Z,929.04
2018-02-24T01:18:44.556Z,929.06
2018-02-24T01:18:57.597Z,929.08
2018-02-24T01:19:10.658Z,929.08
2018-02-24T01:19:23.193Z,929.07
2018-02-24T01:19:35.790Z,929.07
2018-02-24T01:19:48.275Z,929.06
2018-02-24T01:20:00.855Z,929.03
2018-02-24T01:20:12.991Z,929.05
2018-02-24T01:20:25.511Z,929.08
2018-02-24T01:20:38.492Z,929.05
2018-02-24T01:20:51.500Z,929.06
2018-02-24T01:21:04.084Z,929.03
2018-02-24T01:21:16.224Z,929.07
2018-02-24T01:21:27.848Z,929.07
2018-02-24T01:21:40.851Z,929.04
2018-02-24T01:21:53.433Z,929.06
2018-02-24T01:22:06.514Z,929.05
2018-02-24T01:22:19.534Z,929.07
2018-02-24T01:22:32.532Z,929.05
2018-02-24T01:22:45.562Z,929.02
2018-02-24T01:22:58.553Z,929.02
2018-02-24T01:23:11.564Z,929.05
2018-02-24T01:23:24.105Z,929.02
2018-02-24T01:23:37.066Z,929.01
2018-02-24T01:23:49.594Z,928.98
2018-02-24T01:24:02.595Z,928.98
2018-02-24T01:24:14.674Z,929
2018-02-24T01:24:27.223Z,929.02
2018-02-24T01:24:40.230Z,929.01
2018-02-24T01:24:53.277Z,928.98
2018-02-24T01:25:06.355Z,929.01
2018-02-24T01:25:19.351Z,928.98
2018-02-24T01:25:31.432Z,929.01
2018-02-24T01:25:44.500Z,928.98
2018-02-24T01:25:57.475Z,929.01
2018-02-24T01:26:10.073Z,929.04
2018-02-24T01:26:22.649Z,929.01
2018-02-24T01:26:35.631Z,929
2018-02-24T01:26:48.672Z,929.01
2018-02-24T01:27:01.669Z,929.03
2018-02-24T01:27:14.685Z,929.04
2018-02-24T01:27:27.272Z,929.06
2018-02-24T01:27:40.269Z,929.02
2018-02-24T01:27:53.262Z,929.04
2018-02-24T01:28:06.279Z,929.01
2018-02-24T01:28:19.339Z,928.97
2018-02-24T01:28:31.867Z,929.04
2018-02-24T01:28:44.430Z,929.02
2018-02-24T01:28:57.423Z,928.98
2018-02-24T01:29:10.486Z,928.99
2018-02-24T01:29:23.507Z,928.97
2018-02-24T01:29:36.491Z,928.99
2018-02-24T01:29:49.541Z,929.02
2018-02-24T01:30:02.581Z,929.04
2018-02-24T01:30:14.701Z,929.05
2018-02-24T01:30:27.680Z,929.04
2018-02-24T01:30:40.697Z,929.03
2018-02-24T01:30:53.665Z,929.01
2018-02-24T01:31:06.240Z,929
2018-02-24T01:31:18.795Z,929
2018-02-24T01:31:31.860Z,929
2018-02-24T01:31:44.849Z,929.01
2018-02-24T01:31:57.861Z,929.04
2018-02-24T01:32:09.923Z,929.03
2018-02-24T01:32:22.012Z,928.99
2018-02-24T01:32:35.521Z,929.02
2018-02-24T01:32:48.016Z,929.05
2018-02-24T01:33:00.581Z,929.01
2018-02-24T01:33:13.202Z,929
2018-02-24T01:33:25.274Z,929.04
2018-02-24T01:33:37.833Z,929.07
2018-02-24T01:33:50.810Z,929.1
2018-02-24T01:34:03.861Z,929.05
2018-02-24T01:34:16.434Z,929.09
2018-02-24T01:34:28.967Z,929.06
2018-02-24T01:34:41.997Z,929.06
2018-02-24T01:34:54.979Z,929.08
2018-02-24T01:35:08.025Z,929.08
2018-02-24T01:35:21.060Z,929.08
2018-02-24T01:35:33.557Z,929.1
2018-02-24T01:35:46.598Z,929.11
2018-02-24T01:35:59.597Z,929.12
2018-02-24T01:36:12.584Z,929.11
2018-02-24T01:36:25.640Z,929.14
2018-02-24T01:36:38.204Z,929.08
2018-02-24T01:36:50.800Z,929.12
2018-02-24T01:37:03.834Z,929.13
2018-02-24T01:37:16.383Z,929.13
2018-02-24T01:37:29.408Z,929.09
2018-02-24T01:37:41.953Z,929.2
2018-02-24T01:37:54.971Z,929.09
2018-02-24T01:38:07.975Z,929.16
2018-02-24T01:38:20.962Z,929.13
2018-02-24T01:38:33.982Z,929.16
2018-02-24T01:38:46.999Z,929.16
2018-02-24T01:38:59.974Z,929.16
2018-02-24T01:39:13.003Z,929.15
2018-02-24T01:39:25.990Z,929.15
2018-02-24T01:39:38.506Z,929.15
2018-02-24T01:39:50.571Z,929.13
2018-02-24T01:40:03.190Z,929.16
2018-02-24T01:40:15.727Z,929.13
2018-02-24T01:40:28.282Z,929.17
2018-02-24T01:40:40.348Z,929.16
2018-02-24T01:40:53.320Z,929.16
2018-02-24T01:41:06.331Z,929.16
2018-02-24T01:41:19.309Z,929.18
2018-02-24T01:41:32.430Z,929.17
2018-02-24T01:41:44.949Z,929.17
2018-02-24T01:41:57.928Z,929.12
2018-02-24T01:42:10.452Z,929.15
2018-02-24T01:42:23.016Z,929.13
2018-02-24T01:42:35.609Z,929.14
2018-02-24T01:42:48.631Z,929.15
2018-02-24T01:43:01.666Z,929.15
2018-02-24T01:43:14.673Z,929.16
2018-02-24T01:43:27.680Z,929.17
2018-02-24T01:43:40.204Z,929.16
2018-02-24T01:43:53.224Z,929.14
2018-02-24T01:44:06.276Z,929.13
2018-02-24T01:44:19.252Z,929.14
2018-02-24T01:44:31.792Z,929.14
2018-02-24T01:44:44.374Z,929.13
2018-02-24T01:44:56.929Z,929.14
2018-02-24T01:45:09.972Z,929.13
2018-02-24T01:45:22.927Z,929.15
2018-02-24T01:45:35.926Z,929.17
2018-02-24T01:45:48.951Z,929.16
2018-02-24T01:46:01.993Z,929.2
2018-02-24T01:46:15.013Z,929.19
2018-02-24T01:46:27.570Z,929.19
2018-02-24T01:46:40.601Z,929.2
2018-02-24T01:46:53.616Z,929.16
2018-02-24T01:47:06.179Z,929.21
2018-02-24T01:47:19.159Z,929.17
2018-02-24T01:47:32.149Z,929.17
2018-02-24T01:47:45.701Z,929.18
2018-02-24T01:47:58.716Z,929.26
2018-02-24T01:48:11.702Z,929.24
2018-02-24T01:48:24.222Z,929.21
2018-02-24T01:48:37.215Z,929.23
2018-02-24T01:48:50.224Z,929.23
2018-02-24T01:49:02.778Z,929.3
2018-02-24T01:49:15.829Z,929.26
2018-02-24T01:49:27.912Z,929.25
2018-02-24T01:49:40.461Z,929.25
2018-02-24T01:49:53.031Z,929.25
2018-02-24T01:50:06.019Z,929.23
2018-02-24T01:50:19.026Z,929.29
2018-02-24T01:50:31.644Z,929.31
2018-02-24T01:50:44.639Z,929.26
2018-02-24T01:50:57.206Z,929.3
2018-02-24T01:51:09.722Z,929.3
2018-02-24T01:51:22.739Z,929.26
2018-02-24T01:51:35.792Z,929.3
2018-02-24T01:51:48.318Z,929.31
2018-02-24T01:52:01.337Z,929.29
2018-02-24T01:52:14.363Z,929.28
2018-02-24T01:52:27.412Z,929.26
2018-02-24T01:52:39.969Z,929.27
2018-02-24T01:52:52.990Z,929.26
2018-02-24T01:53:06.045Z,929.28
2018-02-24T01:53:19.041Z,929.31
2018-02-24T01:53:31.593Z,929.34
2018-02-24T01:53:44.139Z,929.3
2018-02-24T01:53:57.136Z,929.27
2018-02-24T01:54:09.658Z,929.29
2018-02-24T01:54:22.600Z,929.26
2018-02-24T01:54:35.575Z,929.29
2018-02-24T01:54:48.093Z,929.28
2018-02-24T01:55:01.149Z,929.29
2018-02-24T01:55:14.179Z,929.29
2018-02-24T01:55:26.774Z,929.33
2018-02-24T01:55:39.791Z,929.31
2018-02-24T01:55:52.797Z,929.27
2018-02-24T01:56:05.362Z,929.29
2018-02-24T01:56:18.391Z,929.27
2018-02-24T01:56:31.378Z,929.28
2018-02-24T01:56:44.423Z,929.28
2018-02-24T01:56:57.443Z,929.3
2018-02-24T01:57:10.003Z,929.31
2018-02-24T01:57:23.093Z,929.31
2018-02-24T01:57:36.071Z,929.32
2018-02-24T01:57:48.604Z,929.31
2018-02-24T01:58:01.587Z,929.32
2018-02-24T01:58:14.578Z,929.29
2018-02-24T01:58:27.604Z,929.35
2018-02-24T01:58:40.101Z,929.34
2018-02-24T01:58:52.636Z,929.32
2018-02-24T01:59:04.721Z,929.38
2018-02-24T01:59:17.704Z,929.33
2018-02-24T01:59:30.722Z,929.38
2018-02-24T01:59:43.796Z,929.37
2018-02-24T01:59:56.851Z,929.32
2018-02-24T02:00:09.851Z,929.35
2018-02-24T02:00:22.886Z,929.38
2018-02-24T02:00:35.853Z,929.34
2018-02-24T02:00:48.378Z,929.33
2018-02-24T02:01:01.426Z,929.41
2018-02-24T02:01:14.445Z,929.4
2018-02-24T02:01:27.421Z,929.42
2018-02-24T02:01:39.477Z,929.41
2018-02-24T02:01:52.507Z,929.36
2018-02-24T02:02:05.039Z,929.41
2018-02-24T02:02:18.090Z,929.38
2018-02-24T02:02:30.715Z,929.43
2018-02-24T02:02:43.741Z,929.36
2018-02-24T02:02:57.185Z,929.36
2018-02-24T02:03:10.181Z,929.37
2018-02-24T02:03:22.727Z,929.39
2018-02-24T02:03:35.302Z,929.4
2018-02-24T02:03:47.832Z,929.4
2018-02-24T02:04:00.824Z,929.37
2018-02-24T02:04:13.844Z,929.37
2018-02-24T02:04:26.406Z,929.35
2018-02-24T02:04:38.912Z,929.36
2018-02-24T02:04:51.924Z,929.36
2018-02-24T02:05:04.925Z,929.38
2018-02-24T02:05:17.961Z,929.33
2018-02-24T02:05:30.939Z,929.36
2018-02-24T02:05:43.523Z,929.38
2018-02-24T02:05:56.027Z,929.36
2018-02-24T02:06:09.050Z,929.39
2018-02-24T02:06:22.064Z,929.35
2018-02-24T02:06:34.669Z,929.39
2018-02-24T02:06:47.724Z,929.35
2018-02-24T02:07:00.256Z,929.38
2018-02-24T02:07:12.784Z,929.35
2018-02-24T02:07:25.822Z,929.37
2018-02-24T02:07:38.870Z,929.35
2018-02-24T02:07:51.466Z,929.37
2018-02-24T02:08:04.468Z,929.38
2018-02-24T02:08:17.466Z,929.36
2018-02-24T02:08:30.500Z,929.41
2018-02-24T02:08:43.462Z,929.38
2018-02-24T02:08:56.539Z,929.37
2018-02-24T02:09:09.585Z,929.38
2018-02-24T02:09:22.572Z,929.36
2018-02-24T02:09:35.113Z,929.36
2018-02-24T02:09:48.146Z,929.36
2018-02-24T02:10:00.684Z,929.34
2018-02-24T02:10:13.212Z,929.36
2018-02-24T02:10:26.216Z,929.38
2018-02-24T02:10:38.770Z,929.35
2018-02-24T02:10:51.364Z,929.38
2018-02-24T02:11:04.374Z,929.36
2018-02-24T02:11:17.416Z,929.43
2018-02-24T02:11:29.952Z,929.42
2018-02-24T02:11:42.464Z,929.38
2018-02-24T02:11:55.519Z,929.38
2018-02-24T02:12:08.498Z,929.38
2018-02-24T02:12:21.499Z,929.35
2018-02-24T02:12:34.528Z,929.33
2018-02-24T02:12:47.518Z,929.34
2018-02-24T02:13:00.550Z,929.36
2018-02-24T02:13:13.513Z,929.38
2018-02-24T02:13:26.551Z,929.36
2018-02-24T02:13:39.104Z,929.4
2018-02-24T02:13:51.673Z,929.34
2018-02-24T02:14:04.252Z,929.33
2018-02-24T02:14:17.355Z,929.4
2018-02-24T02:14:29.423Z,929.41
2018-02-24T02:14:42.452Z,929.34
2018-02-24T02:14:55.458Z,929.34
2018-02-24T02:15:08.486Z,929.31
2018-02-24T02:15:21.056Z,929.37
2018-02-24T02:15:34.047Z,929.29
2018-02-24T02:15:46.609Z,929.31
2018-02-24T02:15:59.141Z,929.3
2018-02-24T02:16:12.126Z,929.31
2018-02-24T02:16:24.716Z,929.29
2018-02-24T02:16:37.257Z,929.36
2018-02-24T02:16:50.267Z,929.32
2018-02-24T02:17:03.309Z,929.33
2018-02-24T02:17:16.297Z,929.34
2018-02-24T02:17:29.303Z,929.38
2018-02-24T02:17:42.342Z,929.32
2018-02-24T02:17:55.399Z,929.33
2018-02-24T02:18:08.398Z,929.3
2018-02-24T02:18:21.454Z,929.34
2018-02-24T02:18:33.513Z,929.37
2018-02-24T02:18:45.606Z,929.32
2018-02-24T02:18:58.190Z,929.41
2018-02-24T02:19:11.194Z,929.35
2018-02-24T02:19:24.238Z,929.38
2018-02-24T02:19:36.774Z,929.34
2018-02-24T02:19:49.781Z,929.34
2018-02-24T02:20:02.309Z,929.33
2018-02-24T02:20:15.320Z,929.32
2018-02-24T02:20:28.326Z,929.33
2018-02-24T02:20:40.891Z,929.36
2018-02-24T02:20:53.461Z,929.33
2018-02-24T02:21:06.564Z,929.33
2018-02-24T02:21:19.088Z,929.32
2018-02-24T02:21:32.054Z,929.33
2018-02-24T02:21:45.106Z,929.34
2018-02-24T02:21:58.088Z,929.31
2018-02-24T02:22:11.186Z,929.31
2018-02-24T02:22:24.211Z,929.29
2018-02-24T02:22:36.756Z,929.32
2018-02-24T02:22:49.801Z,929.3
2018-02-24T02:23:01.870Z,929.3
2018-02-24T02:23:14.948Z,929.33
2018-02-24T02:23:28.009Z,929.32
2018-02-24T02:23:41.035Z,929.38
2018-02-24T02:23:53.626Z,929.32
2018-02-24T02:24:06.195Z,929.37
2018-02-24T02:24:19.184Z,929.38
2018-02-24T02:24:32.179Z,929.36
2018-02-24T02:24:44.747Z,929.38
2018-02-24T02:24:57.239Z,929.37
2018-02-24T02:25:10.216Z,929.4
2018-02-24T02:25:22.308Z,929.42
2018-02-24T02:25:35.290Z,929.37
2018-02-24T02:25:47.793Z,929.39
2018-02-24T02:26:00.824Z,929.38
2018-02-24T02:26:13.850Z,929.35
2018-02-24T02:26:26.872Z,929.34
2018-02-24T02:26:39.903Z,929.37
2018-02-24T02:26:52.917Z,929.4
2018-02-24T02:27:05.895Z,929.37
2018-02-24T02:27:18.879Z,929.38
2018-02-24T02:27:31.432Z,929.37
2018-02-24T02:27:44.472Z,929.36
2018-02-24T02:27:57.472Z,929.34
2018-02-24T02:28:09.998Z,929.37
2018-02-24T02:28:23.033Z,929.41
2018-02-24T02:28:36.079Z,929.41
2018-02-24T02:28:49.152Z,929.41
2018-02-24T02:29:01.690Z,929.42
2018-02-24T02:29:14.701Z,929.46
2018-02-24T02:29:27.669Z,929.43
2018-02-24T02:29:40.649Z,929.42
2018-02-24T02:29:53.695Z,929.45
2018-02-24T02:30:06.732Z,929.41
2018-02-24T02:30:19.724Z,929.38
2018-02-24T02:30:32.241Z,929.39
2018-02-24T02:30:44.331Z,929.4
2018-02-24T02:30:56.881Z,929.41
2018-02-24T02:31:09.397Z,929.42
2018-02-24T02:31:22.436Z,929.38
2018-02-24T02:31:35.463Z,929.39
2018-02-24T02:31:48.502Z,929.43
2018-02-24T02:32:01.064Z,929.38
2018-02-24T02:32:13.630Z,929.45
2018-02-24T02:32:26.666Z,929.36
2018-02-24T02:32:38.756Z,929.43
2018-02-24T02:32:51.781Z,929.35
2018-02-24T02:33:04.803Z,929.37
2018-02-24T02:33:17.832Z,929.37
2018-02-24T02:33:30.358Z,929.39
2018-02-24T02:33:42.878Z,929.36
2018-02-24T02:33:55.883Z,929.36
2018-02-24T02:34:08.555Z,929.33
2018-02-24T02:34:21.608Z,929.38
2018-02-24T02:34:33.700Z,929.39
2018-02-24T02:34:46.732Z,929.36
2018-02-24T02:34:59.764Z,929.35
2018-02-24T02:35:12.770Z,929.36
2018-02-24T02:35:25.269Z,929.39
2018-02-24T02:35:37.813Z,929.42
2018-02-24T02:35:50.422Z,929.36
2018-02-24T02:36:03.488Z,929.35
2018-02-24T02:36:16.504Z,929.32
2018-02-24T02:36:29.524Z,929.39
2018-02-24T02:36:42.104Z,929.35
2018-02-24T02:36:55.145Z,929.38
2018-02-24T02:37:07.244Z,929.41
2018-02-24T02:37:20.320Z,929.39
2018-02-24T02:37:33.324Z,929.42
2018-02-24T02:37:46.320Z,929.41
2018-02-24T02:37:59.290Z,929.37
2018-02-24T02:38:12.295Z,929.38
2018-02-24T02:38:25.336Z,929.38
2018-02-24T02:38:38.388Z,929.34
2018-02-24T02:38:51.384Z,929.4
2018-02-24T02:39:04.385Z,929.34
2018-02-24T02:39:16.461Z,929.36
2018-02-24T02:39:29.014Z,929.39
2018-02-24T02:39:42.065Z,929.4
2018-02-24T02:39:54.660Z,929.41
2018-02-24T02:40:07.668Z,929.36
2018-02-24T02:40:20.665Z,929.41